TimeCDT,TemperatureF,Dew PointF,Humidity,Sea Level PressureIn,VisibilityMPH,Wind Direction,Wind SpeedMPH,Gust SpeedMPH,PrecipitationIn,Events,Conditions,WindDirDegrees,DateUTC
12:15 AM,73.4,62.6,69,30.03,10.0,SSE,19.6,-,N/A,,Clear,160,2012-10-13 05:15:00
12:35 AM,73.4,62.6,69,30.02,10.0,SSE,16.1,-,N/A,,Clear,160,2012-10-13 05:35:00
12:55 AM,73.4,62.6,69,30.02,10.0,SSE,16.1,-,N/A,,Scattered Clouds,160,2012-10-13 05:55:00
1:15 AM,73.4,62.6,69,30.01,10.0,South,17.3,-,N/A,,Scattered Clouds,170,2012-10-13 06:15:00
1:35 AM,73.4,62.6,69,30.00,10.0,SSE,19.6,-,N/A,,Scattered Clouds,160,2012-10-13 06:35:00
1:55 AM,73.4,62.6,69,29.99,10.0,SSE,20.7,26.5,N/A,,Clear,160,2012-10-13 06:55:00
2:15 AM,71.6,62.6,73,29.99,10.0,SSE,18.4,25.3,N/A,,Clear,160,2012-10-13 07:15:00
2:35 AM,71.6,62.6,73,29.99,10.0,South,15.0,19.6,N/A,,Scattered Clouds,170,2012-10-13 07:35:00
3:35 AM,71.6,62.6,73,29.97,10.0,SSE,12.7,-,N/A,,Scattered Clouds,150,2012-10-13 08:35:00
4:15 AM,71.6,62.6,73,29.95,10.0,SSE,13.8,-,N/A,,Scattered Clouds,150,2012-10-13 09:15:00
4:35 AM,71.6,62.6,73,29.94,10.0,SSE,15.0,-,N/A,,Mostly Cloudy,160,2012-10-13 09:35:00
4:55 AM,71.6,62.6,73,29.94,10.0,SSE,15.0,-,N/A,,Scattered Clouds,150,2012-10-13 09:55:00
5:15 AM,71.6,62.6,73,29.95,10.0,SSE,11.5,-,N/A,,Mostly Cloudy,150,2012-10-13 10:15:00
5:35 AM,71.6,62.6,73,29.95,10.0,SSE,13.8,-,N/A,,Overcast,150,2012-10-13 10:35:00
5:55 AM,71.6,62.6,73,29.95,10.0,SSE,11.5,-,N/A,,Overcast,150,2012-10-13 10:55:00
6:15 AM,71.6,62.6,73,29.94,10.0,SE,16.1,-,N/A,,Mostly Cloudy,140,2012-10-13 11:15:00
6:35 AM,69.8,62.6,78,29.94,10.0,SE,13.8,-,N/A,,Mostly Cloudy,140,2012-10-13 11:35:00
7:15 AM,69.8,62.6,78,29.93,10.0,SE,11.5,-,N/A,,Mostly Cloudy,140,2012-10-13 12:15:00
7:35 AM,69.8,62.6,78,29.93,10.0,SE,10.4,-,N/A,,Mostly Cloudy,140,2012-10-13 12:35:00
7:55 AM,69.8,64.4,83,29.93,10.0,SE,11.5,-,N/A,,Overcast,140,2012-10-13 12:55:00
8:35 AM,69.8,64.4,83,29.92,10.0,SE,15.0,-,N/A,,Mostly Cloudy,140,2012-10-13 13:35:00
9:15 AM,71.6,64.4,78,29.91,10.0,SSE,16.1,-,N/A,,Scattered Clouds,150,2012-10-13 14:15:00
9:55 AM,75.2,66.2,73,29.91,10.0,South,19.6,24.2,N/A,,Mostly Cloudy,170,2012-10-13 14:55:00
10:15 AM,77.0,66.2,69,29.91,10.0,South,23.0,26.5,N/A,,Scattered Clouds,180,2012-10-13 15:15:00
10:35 AM,78.8,68.0,69,29.91,10.0,South,20.7,25.3,N/A,,Scattered Clouds,180,2012-10-13 15:35:00
11:15 AM,78.8,68.0,69,29.90,10.0,South,23.0,-,N/A,,Mostly Cloudy,190,2012-10-13 16:15:00
11:35 AM,80.6,68.0,65,29.88,10.0,SSW,24.2,31.1,N/A,,Mostly Cloudy,200,2012-10-13 16:35:00
12:35 PM,82.4,68.0,62,29.86,10.0,SSW,21.9,28.8,N/A,,Scattered Clouds,200,2012-10-13 17:35:00
1:15 PM,82.4,62.6,51,29.82,10.0,SW,20.7,26.5,N/A,,Scattered Clouds,220,2012-10-13 18:15:00
1:35 PM,78.8,68.0,69,29.82,3.0,SW,21.9,27.6,0.10,Rain-Thunderstorm,Heavy Thunderstorms and Rain,220,2012-10-13 18:35:00
1:55 PM,71.6,66.2,83,29.79,5.0,SW,18.4,29.9,0.33,Rain-Thunderstorm,Heavy Thunderstorms and Rain,220,2012-10-13 18:55:00
2:15 PM,69.8,64.4,83,29.78,2.5,South,27.6,34.5,0.10,Rain-Thunderstorm,Heavy Thunderstorms and Rain,180,2012-10-13 19:15:00
2:35 PM,71.6,64.4,78,29.76,10.0,SSW,12.7,-,0.10,Thunderstorm,Scattered Clouds,200,2012-10-13 19:35:00
3:15 PM,78.8,66.2,65,29.73,10.0,SW,18.4,26.5,N/A,,Clear,230,2012-10-13 20:15:00
3:55 PM,86.0,53.6,33,29.75,10.0,WSW,25.3,29.9,N/A,Thunderstorm,Clear,250,2012-10-13 20:55:00
4:15 PM,84.2,48.2,29,29.74,10.0,West,26.5,34.5,N/A,,Clear,270,2012-10-13 21:15:00
5:15 PM,82.4,41.0,23,29.75,10.0,West,23.0,34.5,N/A,,Clear,270,2012-10-13 22:15:00
5:35 PM,82.4,41.0,23,29.74,10.0,West,21.9,-,N/A,,Clear,260,2012-10-13 22:35:00
5:55 PM,82.4,37.4,20,29.73,10.0,West,26.5,34.5,N/A,,Clear,260,2012-10-13 22:55:00
6:15 PM,80.6,35.6,20,29.74,10.0,West,25.3,31.1,N/A,,Clear,270,2012-10-13 23:15:00
6:35 PM,80.6,33.8,18,29.74,10.0,West,21.9,33.4,N/A,,Clear,260,2012-10-13 23:35:00
6:55 PM,78.8,33.8,20,29.75,10.0,West,21.9,29.9,N/A,,Clear,260,2012-10-13 23:55:00
7:35 PM,73.4,33.8,23,29.79,10.0,West,17.3,-,N/A,,Clear,270,2012-10-14 00:35:00
7:55 PM,71.6,33.8,25,29.80,10.0,West,13.8,-,N/A,,Clear,280,2012-10-14 00:55:00
8:15 PM,71.6,33.8,25,29.81,10.0,West,18.4,-,N/A,,Clear,280,2012-10-14 01:15:00
8:35 PM,71.6,33.8,25,29.82,10.0,WNW,15.0,-,N/A,,Clear,290,2012-10-14 01:35:00
9:15 PM,71.6,33.8,25,29.82,10.0,West,21.9,26.5,N/A,,Clear,280,2012-10-14 02:15:00
9:35 PM,69.8,35.6,28,29.83,10.0,West,16.1,-,N/A,,Clear,270,2012-10-14 02:35:00
9:55 PM,69.8,35.6,28,29.84,10.0,West,13.8,-,N/A,,Clear,260,2012-10-14 02:55:00
10:15 PM,68.0,35.6,30,29.85,10.0,West,11.5,-,N/A,,Clear,270,2012-10-14 03:15:00
10:35 PM,64.4,35.6,34,29.86,10.0,West,11.5,-,N/A,,Clear,260,2012-10-14 03:35:00
10:55 PM,62.6,39.2,42,29.86,10.0,West,9.2,-,N/A,,Clear,260,2012-10-14 03:55:00
11:15 PM,62.6,37.4,39,29.88,10.0,West,13.8,-,N/A,,Clear,270,2012-10-14 04:15:00
11:35 PM,60.8,39.2,45,29.89,10.0,West,8.1,-,N/A,,Clear,280,2012-10-14 04:35:00